Time;durP1;ratioP1;P1;durP2;ratioP2;P2;SDS_P1;SDS_P2;PMS_P1;PMS_P2;Temp;Humidity;BMP_temperature;BMP_pressure;BME280_temperature;BME280_humidity;BME280_pressure;Samples;Min_cycle;Max_cycle;Signal;HPM_P1;HPM_P2
2022/10/07 00:01:11;;;;;;;315.97;142.10;;;;;;;;;;5005214;28;20219;-56
2022/10/07 00:03:37;;;;;;;281.83;133.77;;;;;;;;;;5018018;28;20302;-56
2022/10/07 00:06:04;;;;;;;305.03;144.33;;;;;;;;;;5007764;28;20219;-56
2022/10/07 00:08:30;;;;;;;360.50;155.07;;;;;;;;;;5022600;28;20266;-56
2022/10/07 00:10:56;;;;;;;346.73;150.83;;;;;;;;;;5015449;28;20224;-56
2022/10/07 00:13:22;;;;;;;357.83;157.13;;;;;;;;;;5012919;28;20227;-56
2022/10/07 00:15:48;;;;;;;411.17;180.33;;;;;;;;;;5018136;28;20301;-56
2022/10/07 00:18:14;;;;;;;386.10;169.87;;;;;;;;;;5015258;28;20367;-56
2022/10/07 00:20:40;;;;;;;383.97;167.87;;;;;;;;;;5017756;28;20690;-56
2022/10/07 00:23:06;;;;;;;378.93;165.13;;;;;;;;;;5018149;28;20216;-56
2022/10/07 00:25:36;;;;;;;417.83;180.20;;;;;;;;;;5008972;28;20225;-57
2022/10/07 00:28:02;;;;;;;382.80;167.53;;;;;;;;;;4996374;28;20693;-56
2022/10/07 00:30:28;;;;;;;280.03;133.20;;;;;;;;;;4998550;28;20185;-56
2022/10/07 00:32:54;;;;;;;290.70;138.20;;;;;;;;;;4997633;28;20292;-56
2022/10/07 00:35:20;;;;;;;311.30;144.90;;;;;;;;;;4994522;28;20216;-56
2022/10/07 00:37:46;;;;;;;294.90;138.93;;;;;;;;;;5003859;28;20277;-53
2022/10/07 00:40:12;;;;;;;283.33;134.43;;;;;;;;;;5004318;28;20269;-56
2022/10/07 00:42:39;;;;;;;224.27;112.93;;;;;;;;;;5003069;28;20206;-56
2022/10/07 00:45:06;;;;;;;251.03;122.27;;;;;;;;;;4997804;28;20201;-56
2022/10/07 00:47:34;;;;;;;267.83;129.33;;;;;;;;;;5001482;28;20570;-56
2022/10/07 00:50:06;;;;;;;310.43;146.00;;;;;;;;;;5000405;28;20833;-56
2022/10/07 00:52:34;;;;;;;258.10;124.50;;;;;;;;;;5001246;28;20232;-56
2022/10/07 00:55:03;;;;;;;229.80;115.73;;;;;;;;;;5000604;28;20274;-56
2022/10/07 00:57:30;;;;;;;214.87;110.70;;;;;;;;;;5001754;28;20189;-56
2022/10/07 00:59:57;;;;;;;289.93;135.33;;;;;;;;;;5000415;28;20634;-56
2022/10/07 01:02:24;;;;;;;242.00;121.00;;;;;;;;;;4994632;28;20212;-56
2022/10/07 01:04:51;;;;;;;250.60;126.10;;;;;;;;;;4996821;28;20495;-56
2022/10/07 01:07:19;;;;;;;211.60;109.37;;;;;;;;;;5007985;28;20681;-56
2022/10/07 01:09:48;;;;;;;269.50;128.97;;;;;;;;;;5004806;28;20185;-56
2022/10/07 01:12:19;;;;;;;200.80;108.07;;;;;;;;;;5005425;28;20188;-56
2022/10/07 01:14:55;;;;;;;271.87;130.83;;;;;;;;;;5007678;28;20227;-56
2022/10/07 01:17:41;;;;;;;283.70;134.40;;;;;;;;;;4997550;28;21329;-56
2022/10/07 01:20:27;;;;;;;293.87;133.13;;;;;;;;;;4992556;28;20723;-56
2022/10/07 01:23:03;;;;;;;213.67;110.50;;;;;;;;;;5002093;28;20801;-56
2022/10/07 01:25:34;;;;;;;290.37;136.47;;;;;;;;;;4994242;28;20801;-56
2022/10/07 01:28:05;;;;;;;259.87;126.83;;;;;;;;;;5000288;28;20219;-56
2022/10/07 01:30:31;;;;;;;262.20;129.30;;;;;;;;;;5002115;28;20185;-56
2022/10/07 01:33:00;;;;;;;272.47;132.50;;;;;;;;;;4996603;28;20355;-56
2022/10/07 01:35:27;;;;;;;335.33;155.17;;;;;;;;;;4995381;28;20216;-56
2022/10/07 01:37:55;;;;;;;251.90;123.30;;;;;;;;;;5000267;28;20239;-56
2022/10/07 01:40:23;;;;;;;261.37;127.13;;;;;;;;;;4996532;28;20220;-56
2022/10/07 01:42:50;;;;;;;290.47;137.90;;;;;;;;;;4998989;28;21664;-56
2022/10/07 01:45:20;;;;;;;252.27;123.23;;;;;;;;;;4999071;28;20196;-56
2022/10/07 01:47:46;;;;;;;290.77;131.53;;;;;;;;;;4996330;28;20815;-56
2022/10/07 01:50:13;;;;;;;263.83;127.70;;;;;;;;;;5004095;28;20213;-56
2022/10/07 01:52:50;;;;;;;279.77;131.63;;;;;;;;;;4998056;28;20212;-56
2022/10/07 01:55:28;;;;;;;270.70;128.63;;;;;;;;;;5001667;28;20346;-56
2022/10/07 01:58:12;;;;;;;284.83;135.53;;;;;;;;;;5001900;28;20183;-56
2022/10/07 02:00:42;;;;;;;262.17;126.93;;;;;;;;;;4994982;28;20349;-56
2022/10/07 02:03:20;;;;;;;248.83;122.43;;;;;;;;;;5002978;28;20250;-56
2022/10/07 02:05:53;;;;;;;294.67;137.83;;;;;;;;;;4997473;28;21733;-56
2022/10/07 02:08:28;;;;;;;251.83;124.07;;;;;;;;;;5007334;28;20315;-56
2022/10/07 02:10:53;;;;;;;294.93;141.50;;;;;;;;;;4997496;28;20353;-56
2022/10/07 02:13:19;;;;;;;;;;;;;;;;;;4999555;28;20277;-56
2022/10/07 02:15:45;;;;;;;;;;;;;;;;;;4998725;28;20203;-56
2022/10/07 02:18:14;;;;;;;327.07;149.13;;;;;;;;;;4996200;28;20035;-56
2022/10/07 02:20:41;;;;;;;267.77;129.67;;;;;;;;;;4997478;28;20329;-56
2022/10/07 02:23:08;;;;;;;225.97;113.87;;;;;;;;;;5002589;28;20212;-56
2022/10/07 02:25:37;;;;;;;369.20;163.23;;;;;;;;;;4998371;28;20799;-56
2022/10/07 02:28:05;;;;;;;242.90;117.83;;;;;;;;;;5001115;28;20212;-56
2022/10/07 02:30:31;;;;;;;264.97;125.10;;;;;;;;;;4998852;28;20323;-56
2022/10/07 02:33:02;;;;;;;305.07;142.27;;;;;;;;;;5008149;28;20224;-56
2022/10/07 02:35:32;;;;;;;292.27;135.57;;;;;;;;;;5000747;28;20582;-56
2022/10/07 02:38:00;;;;;;;234.77;117.10;;;;;;;;;;4999292;28;20677;-55
2022/10/07 02:40:30;;;;;;;289.30;132.47;;;;;;;;;;4996671;28;20205;-56
2022/10/07 02:42:59;;;;;;;263.00;128.30;;;;;;;;;;5000146;28;20255;-56
2022/10/07 02:45:31;;;;;;;203.87;108.43;;;;;;;;;;4995568;28;20396;-56
2022/10/07 02:48:00;;;;;;;280.60;129.70;;;;;;;;;;4996665;28;20797;-56
2022/10/07 02:50:31;;;;;;;283.27;133.00;;;;;;;;;;4996654;28;20599;-56
2022/10/07 02:52:57;;;;;;;321.07;141.63;;;;;;;;;;4997250;28;20221;-56
2022/10/07 02:55:25;;;;;;;369.40;153.17;;;;;;;;;;4996580;28;20251;-56
2022/10/07 02:57:53;;;;;;;403.47;172.17;;;;;;;;;;4996752;28;20191;-56
2022/10/07 03:00:19;;;;;;;417.83;172.30;;;;;;;;;;5001118;28;20177;-53
2022/10/07 03:02:53;;;;;;;445.17;190.63;;;;;;;;;;4995102;28;20220;-56
2022/10/07 03:05:20;;;;;;;373.33;157.37;;;;;;;;;;5002847;28;20723;-56
2022/10/07 03:07:52;;;;;;;435.10;183.13;;;;;;;;;;5004447;28;20212;-56
2022/10/07 03:10:18;;;;;;;364.70;153.23;;;;;;;;;;5000808;28;20283;-56
2022/10/07 03:12:44;;;;;;;344.90;143.67;;;;;;;;;;5001160;28;20353;-56
2022/10/07 03:15:10;;;;;;;379.30;159.07;;;;;;;;;;4993834;28;20196;-56
2022/10/07 03:17:37;;;;;;;364.00;154.30;;;;;;;;;;5005370;28;20580;-56
2022/10/07 03:20:03;;;;;;;357.57;148.03;;;;;;;;;;5004797;28;20248;-56
2022/10/07 03:22:29;;;;;;;373.00;155.87;;;;;;;;;;5007771;28;20547;-56
2022/10/07 03:24:55;;;;;;;386.67;163.03;;;;;;;;;;5005489;28;20212;-56
2022/10/07 03:27:21;;;;;;;386.43;162.37;;;;;;;;;;5004078;28;20195;-56
2022/10/07 03:29:47;;;;;;;397.63;167.43;;;;;;;;;;4991801;28;20243;-56
2022/10/07 03:32:14;;;;;;;347.63;150.30;;;;;;;;;;5002489;28;20227;-56
2022/10/07 03:34:40;;;;;;;402.97;173.00;;;;;;;;;;4999671;28;20459;-56
2022/10/07 03:37:06;;;;;;;309.87;138.20;;;;;;;;;;4990877;28;20674;-56
2022/10/07 03:39:32;;;;;;;368.00;158.43;;;;;;;;;;5006737;28;20219;-56
2022/10/07 03:41:57;;;;;;;402.27;177.90;;;;;;;;;;5000184;28;20287;-56
2022/10/07 03:44:23;;;;;;;373.00;163.57;;;;;;;;;;4993667;28;20311;-56
2022/10/07 03:46:50;;;;;;;393.00;168.80;;;;;;;;;;4988250;28;20262;-56
2022/10/07 03:49:16;;;;;;;360.13;154.93;;;;;;;;;;4999036;28;20283;-56
2022/10/07 03:51:42;;;;;;;363.93;159.03;;;;;;;;;;4998434;28;20184;-56
2022/10/07 03:54:08;;;;;;;314.33;137.27;;;;;;;;;;5003886;28;20193;-56
2022/10/07 03:56:34;;;;;;;382.30;157.67;;;;;;;;;;4994100;28;20576;-56
2022/10/07 03:59:01;;;;;;;440.87;184.00;;;;;;;;;;4991251;28;20208;-56
2022/10/07 04:05:59;;;;;;;117.03;82.30;;;;;;;;;;5015812;27;20615;-56
2022/10/07 04:08:27;;;;;;;70.40;53.40;;;;;;;;;;4998232;28;20217;-57
2022/10/07 04:10:53;;;;;;;89.53;56.23;;;;;;;;;;4994552;28;20212;-56
2022/10/07 04:13:19;;;;;;;102.67;65.43;;;;;;;;;;4985954;28;20701;-56
2022/10/07 04:15:45;;;;;;;115.23;69.13;;;;;;;;;;4987327;28;20208;-56
2022/10/07 04:18:11;;;;;;;92.63;60.97;;;;;;;;;;4994595;28;20199;-56
2022/10/07 04:20:37;;;;;;;126.93;76.73;;;;;;;;;;4993861;28;20228;-56
2022/10/07 04:23:03;;;;;;;82.13;57.87;;;;;;;;;;4999177;28;20220;-56
2022/10/07 04:25:32;;;;;;;110.30;70.83;;;;;;;;;;4990843;28;20236;-56
2022/10/07 04:27:59;;;;;;;88.47;64.43;;;;;;;;;;4996984;28;20228;-56
2022/10/07 04:30:26;;;;;;;75.43;58.87;;;;;;;;;;4993064;28;20307;-56
2022/10/07 04:32:52;;;;;;;70.43;58.47;;;;;;;;;;4998796;28;20591;-56
2022/10/07 04:35:18;;;;;;;115.50;78.57;;;;;;;;;;4999403;28;20263;-56
2022/10/07 04:37:44;;;;;;;90.37;65.80;;;;;;;;;;4999841;28;20758;-56
2022/10/07 04:40:10;;;;;;;104.07;72.67;;;;;;;;;;4993489;28;20213;-54
2022/10/07 04:45:21;;;;;;;133.70;79.63;;;;;;;;;;4990019;28;20211;-55
2022/10/07 04:47:47;;;;;;;72.13;56.27;;;;;;;;;;4991473;28;20348;-54
2022/10/07 04:50:13;;;;;;;120.37;75.13;;;;;;;;;;4995224;28;20239;-55
2022/10/07 04:52:41;;;;;;;104.83;68.70;;;;;;;;;;4994542;28;20217;-55
2022/10/07 04:55:07;;;;;;;95.47;63.70;;;;;;;;;;4992129;28;20307;-55
2022/10/07 04:57:33;;;;;;;97.00;64.07;;;;;;;;;;4983492;28;20291;-55
2022/10/07 05:00:00;;;;;;;66.67;52.47;;;;;;;;;;4997720;28;20205;-55
2022/10/07 05:02:26;;;;;;;72.97;54.00;;;;;;;;;;4998690;28;20216;-55
2022/10/07 05:04:52;;;;;;;64.53;50.47;;;;;;;;;;5005205;28;20763;-55
2022/10/07 05:07:18;;;;;;;97.90;63.73;;;;;;;;;;4994358;28;20322;-55
2022/10/07 05:09:44;;;;;;;61.60;45.40;;;;;;;;;;5003026;28;20193;-54
2022/10/07 05:12:10;;;;;;;70.30;48.83;;;;;;;;;;4997833;28;20804;-54
2022/10/07 05:14:36;;;;;;;119.30;67.20;;;;;;;;;;4988652;28;20229;-54
2022/10/07 05:17:03;;;;;;;72.17;46.00;;;;;;;;;;4991877;28;20605;-54
2022/10/07 05:19:29;;;;;;;66.27;45.33;;;;;;;;;;4977558;28;20221;-54
2022/10/07 05:21:55;;;;;;;84.87;52.40;;;;;;;;;;4977806;28;20324;-54
2022/10/07 05:24:21;;;;;;;53.20;37.93;;;;;;;;;;4961265;28;20391;-55
2022/10/07 05:26:47;;;;;;;105.40;58.83;;;;;;;;;;4972939;28;21653;-54
2022/10/07 05:29:13;;;;;;;66.03;43.93;;;;;;;;;;4974258;28;20229;-55
2022/10/07 05:31:39;;;;;;;99.87;59.27;;;;;;;;;;4983369;28;20244;-55
2022/10/07 05:34:05;;;;;;;59.67;42.83;;;;;;;;;;4987018;28;20766;-55
2022/10/07 05:36:30;;;;;;;97.40;60.27;;;;;;;;;;4980457;28;20240;-54
2022/10/07 05:38:56;;;;;;;91.07;55.87;;;;;;;;;;4981392;28;20664;-55
2022/10/07 05:41:23;;;;;;;87.00;54.37;;;;;;;;;;4972913;28;20720;-55
2022/10/07 05:43:49;;;;;;;75.63;47.77;;;;;;;;;;4976391;28;20295;-54
2022/10/07 05:46:17;;;;;;;52.73;41.87;;;;;;;;;;4979315;28;20699;-54
2022/10/07 05:48:46;;;;;;;80.17;51.67;;;;;;;;;;4986619;28;20185;-55
2022/10/07 05:51:16;;;;;;;110.17;64.53;;;;;;;;;;4977056;28;20706;-55
2022/10/07 05:53:42;;;;;;;78.10;50.93;;;;;;;;;;4979651;28;20221;-54
2022/10/07 05:56:08;;;;;;;93.73;58.27;;;;;;;;;;4976517;28;20213;-55
2022/10/07 05:58:35;;;;;;;95.90;57.57;;;;;;;;;;4980529;28;20301;-54
2022/10/07 06:01:02;;;;;;;71.83;49.83;;;;;;;;;;4983645;28;20217;-55
2022/10/07 06:03:28;;;;;;;85.47;55.13;;;;;;;;;;4976924;28;20244;-54
2022/10/07 06:05:54;;;;;;;66.43;53.57;;;;;;;;;;4985688;28;20451;-54
2022/10/07 06:08:21;;;;;;;59.87;47.17;;;;;;;;;;4991303;28;20212;-55
2022/10/07 06:13:32;;;;;;;108.17;64.53;;;;;;;;;;4973419;28;20748;-54
2022/10/07 06:16:05;;;;;;;77.40;53.47;;;;;;;;;;4957858;28;20312;-54
2022/10/07 06:18:31;;;;;;;153.60;87.53;;;;;;;;;;4974452;28;20185;-54
2022/10/07 06:20:58;;;;;;;57.33;44.83;;;;;;;;;;4976587;28;20681;-54
2022/10/07 06:23:24;;;;;;;155.80;79.50;;;;;;;;;;4974844;28;20213;-54
2022/10/07 06:25:57;;;;;;;77.00;52.43;;;;;;;;;;4973141;28;20225;-55
2022/10/07 06:28:23;;;;;;;92.47;58.67;;;;;;;;;;4964687;28;20236;-55
2022/10/07 06:30:50;;;;;;;114.57;67.13;;;;;;;;;;4962630;28;20213;-55
2022/10/07 06:33:17;;;;;;;103.47;61.80;;;;;;;;;;4979114;28;20194;-55
2022/10/07 06:35:43;;;;;;;123.73;69.10;;;;;;;;;;4975625;28;20228;-55
2022/10/07 06:38:09;;;;;;;78.23;55.73;;;;;;;;;;4980523;28;20218;-55
2022/10/07 06:40:35;;;;;;;124.27;73.50;;;;;;;;;;4979069;28;20543;-55
2022/10/07 06:43:01;;;;;;;88.60;58.93;;;;;;;;;;4979034;28;20252;-55
2022/10/07 06:45:29;;;;;;;85.30;56.97;;;;;;;;;;4963817;28;20267;-55
2022/10/07 06:47:55;;;;;;;111.33;67.20;;;;;;;;;;4983581;28;20590;-55
2022/10/07 06:50:21;;;;;;;114.70;67.67;;;;;;;;;;4978199;28;20204;-55
2022/10/07 06:52:47;;;;;;;99.33;62.67;;;;;;;;;;4985399;28;20217;-55
2022/10/07 06:55:13;;;;;;;61.47;52.47;;;;;;;;;;4992796;28;20221;-55
2022/10/07 06:57:40;;;;;;;72.03;56.23;;;;;;;;;;4990197;28;20204;-55
2022/10/07 07:00:06;;;;;;;58.47;52.13;;;;;;;;;;4991575;28;20182;-55
2022/10/07 07:02:32;;;;;;;96.83;68.40;;;;;;;;;;5020572;28;20229;-55
2022/10/07 07:04:58;;;;;;;101.67;70.60;;;;;;;;;;4986690;28;20554;-55
2022/10/07 07:07:24;;;;;;;74.90;59.07;;;;;;;;;;4987828;28;20678;-55
2022/10/07 07:09:50;;;;;;;63.43;55.40;;;;;;;;;;4994705;28;20186;-55
2022/10/07 07:12:16;;;;;;;89.67;64.83;;;;;;;;;;4986446;28;20316;-55
2022/10/07 07:14:45;;;;;;;79.60;64.23;;;;;;;;;;4989854;28;20704;-55
2022/10/07 07:17:11;;;;;;;103.70;76.70;;;;;;;;;;4983990;28;20300;-55
2022/10/07 07:19:37;;;;;;;68.83;60.03;;;;;;;;;;4989934;28;20288;-55
2022/10/07 07:22:05;;;;;;;69.23;60.57;;;;;;;;;;4991831;28;20216;-55
2022/10/07 07:24:31;;;;;;;88.63;67.73;;;;;;;;;;4991163;28;20589;-55
2022/10/07 07:26:57;;;;;;;78.97;66.70;;;;;;;;;;4992592;28;20323;-54
2022/10/07 07:29:25;;;;;;;72.40;64.10;;;;;;;;;;4996186;28;20220;-54
2022/10/07 07:31:51;;;;;;;68.17;61.00;;;;;;;;;;4996865;28;20254;-56
2022/10/07 07:34:17;;;;;;;72.17;64.43;;;;;;;;;;4999188;28;20319;-54
2022/10/07 07:36:44;;;;;;;72.03;64.53;;;;;;;;;;4995863;28;20616;-54
2022/10/07 07:39:11;;;;;;;105.77;76.87;;;;;;;;;;4996792;28;21034;-54
2022/10/07 07:41:40;;;;;;;95.00;73.70;;;;;;;;;;4995280;28;20240;-54
2022/10/07 07:44:08;;;;;;;89.63;74.57;;;;;;;;;;4995130;28;20204;-54
2022/10/07 07:46:40;;;;;;;134.93;84.90;;;;;;;;;;4981355;28;20212;-55
2022/10/07 07:49:06;;;;;;;125.80;88.03;;;;;;;;;;4985319;28;20217;-55
2022/10/07 07:51:32;;;;;;;93.63;77.27;;;;;;;;;;4988747;28;20174;-56
2022/10/07 07:53:58;;;;;;;115.27;85.37;;;;;;;;;;4979340;28;20225;-55
2022/10/07 07:56:25;;;;;;;135.57;100.60;;;;;;;;;;4994066;28;20214;-55
2022/10/07 07:58:52;;;;;;;89.53;79.60;;;;;;;;;;4987854;28;20209;-56
2022/10/07 08:01:18;;;;;;;121.03;92.57;;;;;;;;;;4971414;28;20263;-56
2022/10/07 08:03:46;;;;;;;146.23;103.23;;;;;;;;;;4979766;28;20185;-55
2022/10/07 08:06:12;;;;;;;104.90;85.40;;;;;;;;;;4989205;28;20295;-56
2022/10/07 08:08:39;;;;;;;113.50;87.63;;;;;;;;;;4988740;28;20701;-56
2022/10/07 08:11:06;;;;;;;101.20;81.53;;;;;;;;;;4994658;28;20220;-56
2022/10/07 08:13:32;;;;;;;152.87;100.60;;;;;;;;;;4985055;28;20276;-56
2022/10/07 08:15:58;;;;;;;95.97;83.87;;;;;;;;;;4983314;28;20243;-56
2022/10/07 08:18:24;;;;;;;126.57;94.63;;;;;;;;;;4985031;28;20260;-56
2022/10/07 08:20:57;;;;;;;101.03;85.00;;;;;;;;;;4983762;28;20359;-55
2022/10/07 08:23:25;;;;;;;104.73;86.33;;;;;;;;;;4991169;28;20227;-55
2022/10/07 08:25:58;;;;;;;104.50;85.17;;;;;;;;;;4986389;28;20241;-56
2022/10/07 08:28:24;;;;;;;106.67;86.23;;;;;;;;;;4988936;28;20682;-55
2022/10/07 08:30:53;;;;;;;141.27;100.53;;;;;;;;;;5003210;28;20216;-56
2022/10/07 08:33:19;;;;;;;101.60;85.23;;;;;;;;;;4975002;28;20759;-56
2022/10/07 08:35:57;;;;;;;191.43;127.20;;;;;;;;;;4976481;28;20347;-56
2022/10/07 08:38:23;;;;;;;183.43;113.77;;;;;;;;;;4974311;28;20225;-56
2022/10/07 08:40:49;;;;;;;94.03;81.00;;;;;;;;;;4988477;28;20219;-56
2022/10/07 08:43:16;;;;;;;133.60;96.63;;;;;;;;;;4970414;28;20213;-55
2022/10/07 08:45:42;;;;;;;217.07;135.60;;;;;;;;;;4981606;28;20231;-56
2022/10/07 08:48:12;;;;;;;147.07;103.10;;;;;;;;;;4965680;28;20205;-56
2022/10/07 08:50:38;;;;;;;179.07;112.80;;;;;;;;;;4974745;28;20705;-56
2022/10/07 08:53:07;;;;;;;203.07;125.57;;;;;;;;;;4977417;28;20212;-56
2022/10/07 08:55:40;;;;;;;226.27;136.73;;;;;;;;;;4972899;28;20648;-55
2022/10/07 08:58:18;;;;;;;190.47;123.07;;;;;;;;;;4971773;28;20218;-55
2022/10/07 09:00:52;;;;;;;263.93;150.67;;;;;;;;;;4964198;28;20252;-55
2022/10/07 09:03:27;;;;;;;240.03;141.97;;;;;;;;;;4973220;28;20678;-55
2022/10/07 09:05:55;;;;;;;219.20;143.53;;;;;;;;;;4965959;28;20851;-55
2022/10/07 09:08:30;;;;;;;215.63;132.77;;;;;;;;;;4972424;28;20225;-55
2022/10/07 09:10:58;;;;;;;194.80;122.00;;;;;;;;;;4977058;28;20217;-55
2022/10/07 09:13:28;;;;;;;180.90;119.70;;;;;;;;;;4982881;28;20236;-55
2022/10/07 09:15:55;;;;;;;185.30;122.93;;;;;;;;;;4990121;28;20222;-55
2022/10/07 09:18:38;;;;;;;184.53;119.20;;;;;;;;;;4984106;28;20178;-55
2022/10/07 09:21:06;;;;;;;196.90;126.90;;;;;;;;;;4979609;28;20255;-56
2022/10/07 09:23:33;;;;;;;231.45;143.98;;;;;;;;;;4963567;28;20213;-56
2022/10/07 09:25:59;;;;;;;249.18;153.00;;;;;;;;;;4972679;28;20239;-56
2022/10/07 09:28:28;;;;;;;258.23;154.97;;;;;;;;;;4978164;28;20228;-56
2022/10/07 09:30:54;;;;;;;209.00;131.93;;;;;;;;;;4977027;28;20193;-56
2022/10/07 09:33:22;;;;;;;251.53;151.27;;;;;;;;;;4974020;28;20205;-56
2022/10/07 09:35:53;;;;;;;244.87;147.60;;;;;;;;;;4974766;28;20225;-56
2022/10/07 09:38:29;;;;;;;232.88;141.43;;;;;;;;;;4977724;28;20332;-56
2022/10/07 09:41:14;;;;;;;289.05;169.75;;;;;;;;;;4975133;28;20217;-56
2022/10/07 09:43:54;;;;;;;329.77;189.40;;;;;;;;;;4971531;28;20221;-56
2022/10/07 09:46:26;;;;;;;240.27;142.13;;;;;;;;;;4970411;28;20709;-56
2022/10/07 09:48:54;;;;;;;299.70;173.70;;;;;;;;;;4968996;28;20746;-56
2022/10/07 09:51:26;;;;;;;299.85;170.88;;;;;;;;;;4974688;28;20298;-56
2022/10/07 09:53:56;;;;;;;286.70;164.40;;;;;;;;;;4974941;28;20320;-56
2022/10/07 09:56:42;;;;;;;243.15;139.50;;;;;;;;;;4979613;28;20713;-56
2022/10/07 09:59:16;;;;;;;278.48;157.77;;;;;;;;;;4975902;28;20221;-56
2022/10/07 10:01:47;;;;;;;267.60;153.37;;;;;;;;;;4980718;28;22108;-57
2022/10/07 10:04:17;;;;;;;328.55;182.68;;;;;;;;;;4981054;28;20717;-56
2022/10/07 10:06:50;;;;;;;347.50;195.40;;;;;;;;;;4980687;28;20215;-56
2022/10/07 10:09:20;;;;;;;300.20;165.32;;;;;;;;;;4976421;28;20220;-57
2022/10/07 10:11:46;;;;;;;302.10;162.90;;;;;;;;;;4972941;28;20229;-60
2022/10/07 10:14:42;;;;;;;339.77;184.70;;;;;;;;;;4982062;28;20663;-61
2022/10/07 10:17:20;;;;;;;350.93;182.73;;;;;;;;;;4973254;28;21070;-60
2022/10/07 10:19:46;;;;;;;395.97;214.87;;;;;;;;;;4962112;28;20225;-60
2022/10/07 10:22:23;;;;;;;384.33;206.57;;;;;;;;;;4974565;28;20232;-60
2022/10/07 10:27:39;;;;;;;357.25;181.18;;;;;;;;;;4973215;28;20244;-56
2022/10/07 10:30:07;;;;;;;407.67;214.03;;;;;;;;;;4973144;28;20234;-56
2022/10/07 10:32:46;;;;;;;396.98;209.45;;;;;;;;;;4980666;28;20264;-56
2022/10/07 10:35:24;;;;;;;338.98;174.27;;;;;;;;;;4983864;28;20232;-56
2022/10/07 10:38:15;;;;;;;339.95;175.27;;;;;;;;;;4974868;28;20243;-56
2022/10/07 10:40:47;;;;;;;330.20;171.48;;;;;;;;;;4993496;28;20217;-56
2022/10/07 10:43:19;;;;;;;328.58;170.77;;;;;;;;;;4995663;28;20213;-56
2022/10/07 10:45:45;;;;;;;408.27;224.80;;;;;;;;;;4988928;28;20663;-56
2022/10/07 10:48:22;;;;;;;356.77;187.23;;;;;;;;;;4981635;28;20216;-56
2022/10/07 10:51:24;;;;;;;451.52;246.70;;;;;;;;;;4976802;28;20918;-56
2022/10/07 10:54:10;;;;;;;329.05;172.52;;;;;;;;;;4980608;28;20223;-56
2022/10/07 10:56:40;;;;;;;365.73;198.35;;;;;;;;;;4985391;28;20227;-56
2022/10/07 10:59:08;;;;;;;364.83;202.07;;;;;;;;;;4985478;28;20216;-56
2022/10/07 11:01:36;;;;;;;367.77;194.77;;;;;;;;;;4978538;28;20345;-56
2022/10/07 11:04:20;;;;;;;370.38;200.50;;;;;;;;;;5008475;28;20274;-56
2022/10/07 11:06:48;;;;;;;362.95;202.63;;;;;;;;;;4980819;28;20204;-56
2022/10/07 11:09:15;;;;;;;345.33;182.80;;;;;;;;;;4980302;28;20313;-56
2022/10/07 11:11:42;;;;;;;343.38;182.02;;;;;;;;;;4985310;28;20224;-56
2022/10/07 11:14:13;;;;;;;337.98;176.77;;;;;;;;;;4978995;28;20235;-56
2022/10/07 11:16:41;;;;;;;410.50;229.13;;;;;;;;;;4972238;28;20586;-56
2022/10/07 11:19:21;;;;;;;382.70;209.07;;;;;;;;;;4971772;28;20210;-56
2022/10/07 11:21:52;;;;;;;393.08;219.95;;;;;;;;;;4971892;28;20181;-56
2022/10/07 11:24:33;;;;;;;340.25;180.77;;;;;;;;;;4983199;28;20205;-56
2022/10/07 11:27:17;;;;;;;378.58;209.30;;;;;;;;;;4980305;28;21470;-56
2022/10/07 11:29:55;;;;;;;374.08;204.93;;;;;;;;;;4973929;28;20228;-56
2022/10/07 11:32:37;;;;;;;352.90;188.48;;;;;;;;;;4981748;28;20216;-56
2022/10/07 11:35:11;;;;;;;352.77;196.18;;;;;;;;;;4975169;28;20874;-56
2022/10/07 11:37:42;;;;;;;364.45;191.30;;;;;;;;;;4976309;28;20570;-56
2022/10/07 11:40:09;;;;;;;354.85;186.70;;;;;;;;;;4981146;28;20241;-56
2022/10/07 11:42:41;;;;;;;366.33;197.40;;;;;;;;;;4974622;28;20185;-56
2022/10/07 11:45:18;;;;;;;361.70;201.83;;;;;;;;;;4976396;28;20714;-56
2022/10/07 11:47:54;;;;;;;359.40;203.63;;;;;;;;;;4972725;28;20303;-56
2022/10/07 11:50:22;;;;;;;399.50;229.97;;;;;;;;;;4973541;28;20213;-56
2022/10/07 11:52:49;;;;;;;405.43;235.77;;;;;;;;;;4983078;28;20214;-56
2022/10/07 11:55:38;;;;;;;384.13;222.03;;;;;;;;;;4965467;28;20256;-56
2022/10/07 11:58:05;;;;;;;410.73;235.73;;;;;;;;;;4970779;28;22167;-57
2022/10/07 12:00:32;;;;;;;353.67;197.30;;;;;;;;;;4977623;28;20538;-56
2022/10/07 12:03:18;;;;;;;380.77;220.33;;;;;;;;;;4972566;28;20220;-56
2022/10/07 12:05:51;;;;;;;371.77;211.23;;;;;;;;;;4975474;28;20311;-56
2022/10/07 12:08:31;;;;;;;348.33;196.20;;;;;;;;;;4969412;28;20221;-56
2022/10/07 12:11:13;;;;;;;371.83;212.20;;;;;;;;;;4972123;28;20220;-56
2022/10/07 12:13:39;;;;;;;355.40;198.70;;;;;;;;;;4973399;28;20229;-56
2022/10/07 12:16:23;;;;;;;320.23;174.10;;;;;;;;;;4979612;28;20217;-56
2022/10/07 12:19:15;;;;;;;369.33;214.17;;;;;;;;;;4971065;28;20189;-56
2022/10/07 12:22:01;;;;;;;356.07;200.23;;;;;;;;;;4973999;28;20216;-56
2022/10/07 12:24:28;;;;;;;396.87;213.83;;;;;;;;;;4971311;28;20669;-56
2022/10/07 12:26:55;;;;;;;409.57;233.10;;;;;;;;;;4965461;28;20261;-56
2022/10/07 12:29:22;;;;;;;370.63;201.77;;;;;;;;;;4978772;28;20224;-56
2022/10/07 12:31:48;;;;;;;344.77;191.20;;;;;;;;;;4980112;28;20606;-56
2022/10/07 12:34:22;;;;;;;394.60;226.53;;;;;;;;;;4971186;28;20786;-56
2022/10/07 12:36:48;;;;;;;366.30;209.47;;;;;;;;;;4978153;28;20682;-56
2022/10/07 12:39:14;;;;;;;352.10;197.03;;;;;;;;;;4977834;28;20181;-56
2022/10/07 12:41:45;;;;;;;358.40;204.47;;;;;;;;;;4989715;28;24642;-56
2022/10/07 12:44:17;;;;;;;345.13;198.93;;;;;;;;;;4988764;28;20235;-56
2022/10/07 12:46:49;;;;;;;381.40;226.80;;;;;;;;;;4987233;28;20232;-56
2022/10/07 12:49:39;;;;;;;335.07;192.57;;;;;;;;;;4984155;28;20213;-56
2022/10/07 12:52:22;;;;;;;384.63;228.60;;;;;;;;;;4977999;28;20213;-56
2022/10/07 12:54:48;;;;;;;332.47;190.97;;;;;;;;;;5020921;28;20257;-56
2022/10/07 12:57:18;;;;;;;356.00;209.10;;;;;;;;;;4987962;28;20716;-56
2022/10/07 13:00:01;;;;;;;381.10;228.63;;;;;;;;;;4985643;28;20228;-56
2022/10/07 13:02:33;;;;;;;351.70;207.97;;;;;;;;;;4983118;28;20217;-56
2022/10/07 13:05:01;;;;;;;370.17;221.07;;;;;;;;;;4983707;28;20221;-56
2022/10/07 13:07:37;;;;;;;347.37;206.53;;;;;;;;;;4986063;28;20907;-56
2022/10/07 13:10:11;;;;;;;367.17;226.07;;;;;;;;;;4984797;28;20220;-57
2022/10/07 13:12:46;;;;;;;367.47;227.93;;;;;;;;;;4977988;28;20189;-57
2022/10/07 13:15:16;;;;;;;347.77;217.20;;;;;;;;;;4985075;28;20220;-57
2022/10/07 13:17:45;;;;;;;365.10;231.93;;;;;;;;;;4993129;28;20686;-57
2022/10/07 13:20:29;;;;;;;391.10;260.58;;;;;;;;;;4983333;28;20213;-57
2022/10/07 13:22:55;;;;;;;387.92;262.52;;;;;;;;;;4979215;28;20300;-57
2022/10/07 13:25:21;;;;;;;378.90;268.35;;;;;;;;;;4971752;28;20283;-57
2022/10/07 13:27:57;;;;;;;374.65;271.00;;;;;;;;;;4978687;28;20186;-57
2022/10/07 13:30:40;;;;;;;412.38;304.38;;;;;;;;;;4978493;28;20184;-57
2022/10/07 13:33:12;;;;;;;368.85;281.52;;;;;;;;;;4984704;28;20205;-57
2022/10/07 13:35:38;;;;;;;458.50;353.48;;;;;;;;;;4984033;28;20698;-58
2022/10/07 13:38:04;;;;;;;367.45;296.90;;;;;;;;;;4987045;28;20228;-57
2022/10/07 13:40:34;;;;;;;401.75;323.15;;;;;;;;;;4989599;28;20259;-54
2022/10/07 13:43:02;;;;;;;377.05;317.85;;;;;;;;;;4988878;28;20213;-55
2022/10/07 13:45:28;;;;;;;473.27;390.83;;;;;;;;;;4984713;28;20211;-55
2022/10/07 13:47:54;;;;;;;433.75;363.00;;;;;;;;;;4976253;28;20209;-54
2022/10/07 13:50:25;;;;;;;388.17;330.92;;;;;;;;;;4985932;28;20280;-55
2022/10/07 13:52:52;;;;;;;465.30;384.10;;;;;;;;;;4986446;28;20287;-54
2022/10/07 13:55:33;;;;;;;426.90;362.73;;;;;;;;;;4974964;28;20233;-53
2022/10/07 13:58:03;;;;;;;376.95;332.77;;;;;;;;;;4976380;28;20223;-57
2022/10/07 14:00:29;;;;;;;427.60;369.08;;;;;;;;;;4978072;28;20177;-56
2022/10/07 14:02:55;;;;;;;409.42;351.83;;;;;;;;;;4982438;28;20213;-56
2022/10/07 14:05:28;;;;;;;382.40;338.35;;;;;;;;;;4987980;28;20221;-56
2022/10/07 14:08:12;;;;;;;381.20;334.67;;;;;;;;;;4987328;28;20201;-57
2022/10/07 14:10:49;;;;;;;417.20;371.00;;;;;;;;;;4978618;28;21456;-57
2022/10/07 14:13:15;;;;;;;403.95;360.00;;;;;;;;;;4981243;28;21810;-56
2022/10/07 14:15:46;;;;;;;440.73;374.23;;;;;;;;;;4986369;28;20702;-57
2022/10/07 14:18:14;;;;;;;382.67;337.75;;;;;;;;;;4988311;28;20174;-57
2022/10/07 14:20:43;;;;;;;405.05;346.38;;;;;;;;;;4988187;28;20356;-58
2022/10/07 14:23:25;;;;;;;390.70;338.95;;;;;;;;;;4987738;28;20201;-57
2022/10/07 14:25:54;;;;;;;402.48;343.83;;;;;;;;;;4979307;28;20402;-57